createdAt,value
2018-09-02T00:01:15.807Z,98706.86
2018-09-02T00:03:48.957Z,98706.98
2018-09-02T00:06:22.114Z,98704.69
2018-09-02T00:08:55.286Z,98698.41
2018-09-02T00:11:28.521Z,98693.93
2018-09-02T00:14:01.692Z,98702.33
2018-09-02T00:16:34.875Z,98700.72
2018-09-02T00:19:08.106Z,98692.57
2018-09-02T00:21:41.264Z,98691.72
2018-09-02T00:24:14.426Z,98688.22
2018-09-02T00:26:47.623Z,98689.50
2018-09-02T00:29:20.801Z,98691.27
2018-09-02T00:31:54.016Z,98690.80
2018-09-02T00:34:27.233Z,98686.58
2018-09-02T00:37:00.410Z,98684.97
2018-09-02T00:39:33.596Z,98683.28
2018-09-02T00:42:06.763Z,98688.22
2018-09-02T00:44:39.949Z,98687.08
2018-09-02T00:47:13.105Z,98683.06
2018-09-02T00:49:46.270Z,98682.39
2018-09-02T00:52:19.446Z,98680.95
2018-09-02T00:54:52.598Z,98677.64
2018-09-02T00:57:25.751Z,98679.98
2018-09-02T00:59:59.029Z,98674.80
2018-09-02T01:02:32.133Z,98675.33
2018-09-02T01:05:05.592Z,98676.66
2018-09-02T01:07:38.778Z,98676.94
2018-09-02T01:10:11.932Z,98674.97
2018-09-02T01:12:45.091Z,98671.59
2018-09-02T01:15:18.269Z,98675.37
2018-09-02T01:17:51.433Z,98674.91
2018-09-02T01:20:24.598Z,98678.56
2018-09-02T01:22:57.796Z,98674.14
2018-09-02T01:25:30.884Z,98674.20
2018-09-02T01:28:04.074Z,98672.75
2018-09-02T01:30:37.472Z,98665.84
2018-09-02T01:33:10.675Z,98669.31
2018-09-02T01:35:44.009Z,98670.44
2018-09-02T01:38:17.106Z,98671.27
2018-09-02T01:40:50.257Z,98668.75
2018-09-02T01:43:23.404Z,98665.45
2018-09-02T01:45:56.515Z,98668.59
2018-09-02T01:48:29.665Z,98671.20
2018-09-02T01:51:02.736Z,98667.24
2018-09-02T01:53:35.925Z,98664.26
2018-09-02T01:56:09.065Z,98662.34
2018-09-02T01:58:42.204Z,98657.41
2018-09-02T02:01:15.333Z,98664.67
2018-09-02T02:03:48.776Z,98656.44
2018-09-02T02:06:21.929Z,98655.34
2018-09-02T02:08:55.084Z,98648.18
2018-09-02T02:11:28.244Z,98645.26
2018-09-02T02:14:02.469Z,98644.72
2018-09-02T02:16:35.853Z,98642.05
2018-09-02T02:19:09.013Z,98643.59
2018-09-02T02:21:42.173Z,98643.09
2018-09-02T02:24:15.342Z,98641.64
2018-09-02T02:26:48.493Z,98638.75
2018-09-02T02:29:21.622Z,98638.75
2018-09-02T02:31:54.775Z,98637.72
2018-09-02T02:34:27.930Z,98633.55
2018-09-02T02:37:01.033Z,98640.14
2018-09-02T02:39:34.217Z,98635.14
2018-09-02T02:42:07.337Z,98637.39
2018-09-02T02:44:40.457Z,98633.22
2018-09-02T02:47:13.643Z,98628.84
2018-09-02T02:49:46.911Z,98625.17
2018-09-02T02:52:20.098Z,98624.98
2018-09-02T02:54:53.210Z,98623.08
2018-09-02T02:57:26.343Z,98617.77
2018-09-02T02:59:59.465Z,98616.65
2018-09-02T03:02:32.623Z,98612.95
2018-09-02T03:05:05.988Z,98614.70
2018-09-02T03:07:39.190Z,98617.28
2018-09-02T03:10:12.325Z,98611.82
2018-09-02T03:12:45.470Z,98604.25
2018-09-02T03:15:18.863Z,98606.83
2018-09-02T03:17:52.004Z,98603.05
2018-09-02T03:20:25.143Z,98604.72
2018-09-02T03:22:58.329Z,98602.49
2018-09-02T03:25:31.434Z,98605.84
2018-09-02T03:28:04.521Z,98601.04
2018-09-02T03:30:37.627Z,98596.93
2018-09-02T03:33:10.775Z,98600.38
2018-09-02T03:35:43.885Z,98596.52
2018-09-02T03:38:17.023Z,98600.32
2018-09-02T03:40:50.148Z,98593.00
2018-09-02T03:43:23.359Z,98590.73
2018-09-02T03:45:56.575Z,98592.14
2018-09-02T03:48:29.962Z,98592.84
2018-09-02T03:51:03.153Z,98586.52
2018-09-02T03:53:36.253Z,98587.00
2018-09-02T03:56:09.384Z,98584.62
2018-09-02T03:58:42.562Z,98590.18
2018-09-02T04:01:15.842Z,98587.67
2018-09-02T04:03:48.990Z,98586.78
2018-09-02T04:06:22.165Z,98580.92
2018-09-02T04:08:55.255Z,98582.36
2018-09-02T04:11:28.523Z,98583.95
2018-09-02T04:14:01.620Z,98582.73
2018-09-02T04:16:34.812Z,98578.30
2018-09-02T04:19:07.933Z,98586.92
2018-09-02T04:21:41.247Z,98578.05
2018-09-02T04:24:14.373Z,98579.49
2018-09-02T04:26:47.484Z,98575.18
2018-09-02T04:29:20.564Z,98576.05
2018-09-02T04:31:53.746Z,98573.45
2018-09-02T04:34:26.973Z,98580.59
2018-09-02T04:37:00.109Z,98578.13
2018-09-02T04:39:33.237Z,98581.84
2018-09-02T04:42:06.447Z,98575.55
2018-09-02T04:44:39.680Z,98580.05
2018-09-02T04:47:13.141Z,98578.53
2018-09-02T04:49:46.301Z,98582.62
2018-09-02T04:52:19.390Z,98580.38
2018-09-02T04:54:52.521Z,98576.35
2018-09-02T04:57:25.660Z,98577.59
2018-09-02T04:59:58.768Z,98579.09
2018-09-02T05:02:32.001Z,98575.39
2018-09-02T05:05:05.277Z,98569.78
2018-09-02T05:07:38.353Z,98576.06
2018-09-02T05:10:11.496Z,98572.45
2018-09-02T05:12:44.616Z,98571.94
2018-09-02T05:15:17.733Z,98568.51
2018-09-02T05:17:50.887Z,98567.85
2018-09-02T05:20:24.066Z,98568.58
2018-09-02T05:22:57.239Z,98566.20
2018-09-02T05:25:30.381Z,98562.84
2018-09-02T05:28:03.879Z,98563.63
2018-09-02T05:30:37.161Z,98559.62
2018-09-02T05:33:10.317Z,98557.61
2018-09-02T05:35:43.404Z,98563.58
2018-09-02T05:38:16.578Z,98562.51
2018-09-02T05:40:49.736Z,98563.89
2018-09-02T05:43:22.822Z,98563.48
2018-09-02T05:45:55.979Z,98561.69
2018-09-02T05:48:29.108Z,98562.61
2018-09-02T05:51:02.248Z,98568.31
2018-09-02T05:53:35.416Z,98571.45
2018-09-02T05:56:08.561Z,98568.37
2018-09-02T05:58:41.694Z,98567.91
2018-09-02T06:01:14.835Z,98569.76
2018-09-02T06:03:48.028Z,98569.82
2018-09-02T06:06:21.248Z,98571.27
2018-09-02T06:08:54.321Z,98569.51
2018-09-02T06:11:27.453Z,98576.41
2018-09-02T06:14:00.604Z,98570.23
2018-09-02T06:16:33.799Z,98569.98
2018-09-02T06:19:06.964Z,98566.77
2018-09-02T06:21:40.070Z,98569.81
2018-09-02T06:24:13.297Z,98575.44
2018-09-02T06:26:46.441Z,98571.01
2018-09-02T06:29:19.604Z,98573.11
2018-09-02T06:31:52.754Z,98576.41
2018-09-02T06:34:25.857Z,98574.30
2018-09-02T06:36:58.980Z,98578.01
2018-09-02T06:39:32.265Z,98579.23
2018-09-02T06:42:05.384Z,98574.65
2018-09-02T06:44:39.138Z,98573.67
2018-09-02T06:47:12.210Z,98575.44
2018-09-02T06:49:45.407Z,98579.30
2018-09-02T06:52:18.569Z,98574.24
2018-09-02T06:54:51.665Z,98572.55
2018-09-02T06:57:24.773Z,98568.42
2018-09-02T06:59:57.894Z,98570.78
2018-09-02T07:02:31.037Z,98571.08
2018-09-02T07:05:04.593Z,98567.84
2018-09-02T07:07:37.713Z,98570.56
2018-09-02T07:10:10.874Z,98569.78
2018-09-02T07:12:44.317Z,98569.41
2018-09-02T07:15:17.542Z,98572.66
2018-09-02T07:17:50.689Z,98574.28
2018-09-02T07:20:23.877Z,98578.45
2018-09-02T07:22:57.082Z,98575.16
2018-09-02T07:25:30.238Z,98571.55
2018-09-02T07:28:03.396Z,98578.70
2018-09-02T07:30:37.429Z,98573.88
2018-09-02T07:33:10.605Z,98572.99
2018-09-02T07:35:50.740Z,98573.55
2018-09-02T07:38:23.956Z,98571.95
2018-09-02T07:40:57.124Z,98566.86
2018-09-02T07:43:30.278Z,98576.75
2018-09-02T07:46:03.778Z,98566.99
2018-09-02T07:48:36.978Z,98569.58
2018-09-02T07:51:10.112Z,98566.69
2018-09-02T07:53:43.314Z,98560.39
2018-09-02T07:56:16.488Z,98564.81
2018-09-02T07:58:49.741Z,98565.86
2018-09-02T08:01:22.883Z,98564.84
2018-09-02T08:03:56.093Z,98567.56
2018-09-02T08:06:29.321Z,98570.28
2018-09-02T08:09:03.570Z,98562.38
2018-09-02T08:11:36.777Z,98570.26
2018-09-02T08:14:09.920Z,98571.55
2018-09-02T08:16:43.184Z,98570.94
2018-09-02T08:19:16.366Z,98571.17
2018-09-02T08:21:49.637Z,98568.97
2018-09-02T08:24:22.823Z,98572.78
2018-09-02T08:26:55.996Z,98579.23
2018-09-02T08:29:29.178Z,98578.81
2018-09-02T08:32:02.301Z,98579.14
2018-09-02T08:34:35.522Z,98577.27
2018-09-02T08:37:08.676Z,98578.78
2018-09-02T08:39:41.888Z,98580.63
2018-09-02T08:42:15.094Z,98576.96
2018-09-02T08:44:48.560Z,98581.38
2018-09-02T08:47:21.777Z,98577.89
2018-09-02T08:49:54.945Z,98583.10
2018-09-02T08:52:28.054Z,98583.41
2018-09-02T08:55:01.221Z,98584.66
2018-09-02T08:57:34.469Z,98589.37
2018-09-02T09:00:09.156Z,98583.08
2018-09-02T09:02:42.347Z,98578.38
2018-09-02T09:05:15.555Z,98576.12
2018-09-02T09:07:48.972Z,98572.89
2018-09-02T09:10:22.043Z,98569.44
2018-09-02T09:12:55.293Z,98558.98
2018-09-02T09:15:28.470Z,98559.92
2018-09-02T09:18:01.749Z,98554.30
2018-09-02T09:20:34.971Z,98553.01
2018-09-02T09:23:08.162Z,98552.00
2018-09-02T09:25:41.394Z,98555.56
2018-09-02T09:28:14.569Z,98554.47
2018-09-02T09:30:47.682Z,98549.48
2018-09-02T09:33:20.894Z,98545.34
2018-09-02T09:35:54.145Z,98545.53
2018-09-02T09:38:27.361Z,98546.91
2018-09-02T09:41:00.562Z,98547.05
2018-09-02T09:43:33.865Z,98544.87
2018-09-02T09:46:07.178Z,98536.67
2018-09-02T09:48:40.308Z,98549.77
2018-09-02T09:51:13.569Z,98552.16
2018-09-02T09:53:46.781Z,98557.59
2018-09-02T09:56:20.004Z,98556.23
2018-09-02T09:58:53.204Z,98562.83
2018-09-02T10:01:26.346Z,98560.03
2018-09-02T10:03:59.702Z,98560.03
2018-09-02T10:06:32.915Z,98556.16
2018-09-02T10:09:11.283Z,98553.25
2018-09-02T10:11:44.706Z,98543.53
2018-09-02T10:14:17.853Z,98543.73
2018-09-02T10:16:51.114Z,98541.14
2018-09-02T10:19:24.312Z,98540.73
2018-09-02T10:21:57.602Z,98531.66
2018-09-02T10:24:30.878Z,98531.66
2018-09-02T10:27:04.130Z,98523.31
2018-09-02T10:29:37.349Z,98521.00
2018-09-02T10:32:10.592Z,98524.59
2018-09-02T10:34:43.806Z,98518.41
2018-09-02T10:37:17.075Z,98523.11
2018-09-02T10:39:50.316Z,98523.43
2018-09-02T10:42:23.665Z,98518.36
2018-09-02T10:44:56.952Z,98516.39
2018-09-02T10:47:30.167Z,98516.72
2018-09-02T10:50:03.525Z,98514.05
2018-09-02T10:52:36.786Z,98504.61
2018-09-02T10:55:10.030Z,98504.61
2018-09-02T10:57:43.289Z,98500.28
2018-09-02T11:00:16.670Z,98504.78
2018-09-02T11:02:49.849Z,98499.67
2018-09-02T11:05:23.136Z,98503.62
2018-09-02T11:07:56.318Z,98499.47
2018-09-02T11:10:29.606Z,98494.36
2018-09-02T11:13:02.883Z,98494.73
2018-09-02T11:15:36.550Z,98492.80
2018-09-02T11:18:09.834Z,98492.48
2018-09-02T11:20:43.111Z,98491.65
2018-09-02T11:23:16.319Z,98485.33
2018-09-02T11:25:49.595Z,98493.84
2018-09-02T11:28:22.766Z,98491.53
2018-09-02T11:30:56.008Z,98490.30
2018-09-02T11:33:29.258Z,98498.17
2018-09-02T11:36:02.469Z,98488.54
2018-09-02T11:38:35.619Z,98488.73
2018-09-02T11:41:08.804Z,98490.49
2018-09-02T11:43:41.998Z,98485.94
2018-09-02T11:46:15.225Z,98488.19
2018-09-02T11:48:48.369Z,98486.15
2018-09-02T11:51:21.541Z,98491.31
2018-09-02T11:53:54.754Z,98484.11
2018-09-02T11:56:27.944Z,98488.16
2018-09-02T11:59:01.162Z,98486.78
2018-09-02T12:01:34.514Z,98486.41
2018-09-02T12:04:08.051Z,98482.91
2018-09-02T12:06:41.332Z,98487.96
2018-09-02T12:09:14.552Z,98478.05
2018-09-02T12:11:47.826Z,98473.92
2018-09-02T12:14:21.023Z,98472.22
2018-09-02T12:16:54.277Z,98469.55
2018-09-02T12:19:27.477Z,98478.55
2018-09-02T12:22:00.782Z,98476.63
2018-09-02T12:24:34.034Z,98479.21
2018-09-02T12:27:07.290Z,98482.63
2018-09-02T12:29:40.497Z,98480.80
2018-09-02T12:32:13.795Z,98491.22
2018-09-02T12:34:47.029Z,98487.96
2018-09-02T12:37:20.176Z,98486.70
2018-09-02T12:39:53.341Z,98487.23
2018-09-02T12:42:26.604Z,98480.66
2018-09-02T12:44:59.867Z,98481.71
2018-09-02T12:47:33.175Z,98484.03
2018-09-02T12:50:06.442Z,98481.14
2018-09-02T12:52:39.692Z,98484.03
2018-09-02T12:55:13.130Z,98477.66
2018-09-02T12:57:46.288Z,98476.16
2018-09-02T13:00:19.532Z,98474.00
2018-09-02T13:02:52.703Z,98475.38
2018-09-02T13:05:25.997Z,98474.28
2018-09-02T13:07:59.184Z,98470.27
2018-09-02T13:10:32.498Z,98463.77
2018-09-02T13:13:06.019Z,98453.30
2018-09-02T13:15:39.253Z,98452.14
2018-09-02T13:18:12.449Z,98452.48
2018-09-02T13:20:45.699Z,98454.70
2018-09-02T13:23:18.944Z,98454.22
2018-09-02T13:25:52.216Z,98451.52
2018-09-02T13:28:25.414Z,98455.13
2018-09-02T13:30:58.658Z,98450.09
2018-09-02T13:33:31.902Z,98452.80
2018-09-02T13:36:05.218Z,98451.97
2018-09-02T13:38:38.457Z,98446.68
2018-09-02T13:41:11.679Z,98446.43
2018-09-02T13:43:44.841Z,98440.85
2018-09-02T13:46:18.177Z,98445.73
2018-09-02T13:48:51.481Z,98446.06
2018-09-02T13:51:24.871Z,98443.55
2018-09-02T13:53:58.161Z,98445.67
2018-09-02T13:56:31.415Z,98449.50
2018-09-02T13:59:04.680Z,98445.00
2018-09-02T14:01:37.948Z,98439.84
2018-09-02T14:04:11.340Z,98442.81
2018-09-02T14:06:44.581Z,98448.39
2018-09-02T14:09:17.774Z,98446.81
2018-09-02T14:11:51.033Z,98452.44
2018-09-02T14:14:24.340Z,98461.81
2018-09-02T14:16:57.625Z,98452.31
2018-09-02T14:19:30.958Z,98445.19
2018-09-02T14:22:04.265Z,98441.23
2018-09-02T14:24:37.505Z,98437.27
2018-09-02T14:27:10.705Z,98431.81
2018-09-02T14:29:44.003Z,98434.44
2018-09-02T14:32:17.213Z,98430.18
2018-09-02T14:34:50.492Z,98432.10
2018-09-02T14:37:23.777Z,98431.02
2018-09-02T14:40:04.002Z,98429.53
2018-09-02T14:42:37.249Z,98426.91
2018-09-02T14:45:10.476Z,98427.16
2018-09-02T14:47:43.849Z,98427.44
2018-09-02T14:50:17.156Z,98422.48
2018-09-02T14:52:50.371Z,98415.54
2018-09-02T14:55:23.694Z,98415.08
2018-09-02T14:57:57.041Z,98416.83
2018-09-02T15:00:30.336Z,98417.33
2018-09-02T15:03:03.542Z,98413.25
2018-09-02T15:05:36.796Z,98414.62
2018-09-02T15:08:09.980Z,98412.08
2018-09-02T15:10:43.271Z,98414.25
2018-09-02T15:13:16.611Z,98416.91
2018-09-02T15:15:49.809Z,98410.33
2018-09-02T15:18:23.053Z,98411.80
2018-09-02T15:20:56.379Z,98414.38
2018-09-02T15:23:29.630Z,98411.13
2018-09-02T15:26:02.821Z,98411.55
2018-09-02T15:28:36.118Z,98410.38
2018-09-02T15:31:09.321Z,98408.21
2018-09-02T15:33:42.551Z,98406.05
2018-09-02T15:36:15.813Z,98408.50
2018-09-02T15:38:49.126Z,98409.37
2018-09-02T15:41:22.358Z,98406.00
2018-09-02T15:43:55.597Z,98406.70
2018-09-02T15:46:28.820Z,98399.20
2018-09-02T15:49:02.061Z,98398.28
2018-09-02T15:51:35.279Z,98394.60
2018-09-02T15:54:08.534Z,98394.02
2018-09-02T15:56:41.803Z,98393.82
2018-09-02T15:59:15.070Z,98399.94
2018-09-02T16:01:48.242Z,98396.70
2018-09-02T16:04:21.531Z,98401.95
2018-09-02T16:06:54.807Z,98392.63
2018-09-02T16:09:28.010Z,98396.19
2018-09-02T16:12:01.246Z,98407.29
2018-09-02T16:14:34.423Z,98402.77
2018-09-02T16:17:07.688Z,98399.87
2018-09-02T16:19:40.970Z,98394.84
2018-09-02T16:22:14.349Z,98395.84
2018-09-02T16:24:47.578Z,98396.47
2018-09-02T16:27:20.812Z,98398.09
2018-09-02T16:29:53.967Z,98399.87
2018-09-02T16:32:28.927Z,98399.59
2018-09-02T16:35:02.642Z,98399.05
2018-09-02T16:37:35.900Z,98400.34
2018-09-02T16:40:09.082Z,98395.52
2018-09-02T16:42:42.443Z,98393.02
2018-09-02T16:45:15.785Z,98384.36
2018-09-02T16:47:49.029Z,98383.23
2018-09-02T16:50:22.304Z,98386.02
2018-09-02T16:52:55.645Z,98384.78
2018-09-02T16:55:28.784Z,98384.36
2018-09-02T16:58:02.033Z,98387.02
2018-09-02T17:00:35.365Z,98380.73
2018-09-02T17:03:08.608Z,98381.33
2018-09-02T17:05:41.848Z,98370.91
2018-09-02T17:08:15.063Z,98367.61
2018-09-02T17:10:48.369Z,98378.34
2018-09-02T17:13:21.909Z,98364.53
2018-09-02T17:15:55.388Z,98363.32
2018-09-02T17:18:28.651Z,98367.73
2018-09-02T17:21:01.948Z,98365.28
2018-09-02T17:23:35.189Z,98368.56
2018-09-02T17:26:08.573Z,98356.98
2018-09-02T17:28:41.786Z,98363.67
2018-09-02T17:31:15.129Z,98359.46
2018-09-02T17:33:48.419Z,98362.72
2018-09-02T17:36:21.647Z,98359.59
2018-09-02T17:38:54.961Z,98353.01
2018-09-02T17:41:28.221Z,98350.14
2018-09-02T17:44:01.454Z,98359.67
2018-09-02T17:46:34.702Z,98353.44
2018-09-02T17:49:07.872Z,98352.89
2018-09-02T17:51:41.088Z,98355.77
2018-09-02T17:54:14.399Z,98356.05
2018-09-02T17:56:47.694Z,98351.15
2018-09-02T17:59:20.861Z,98353.73
2018-09-02T18:01:54.135Z,98355.80
2018-09-02T18:04:27.330Z,98351.52
2018-09-02T18:07:00.581Z,98359.59
2018-09-02T18:09:33.803Z,98361.34
2018-09-02T18:12:07.055Z,98356.27
2018-09-02T18:14:40.311Z,98357.09
2018-09-02T18:17:13.561Z,98363.72
2018-09-02T18:19:46.798Z,98366.17
2018-09-02T18:22:20.163Z,98373.08
2018-09-02T18:24:53.895Z,98377.23
2018-09-02T18:27:30.192Z,98378.37
2018-09-02T18:30:03.710Z,98378.98
2018-09-02T18:32:37.280Z,98385.36
2018-09-02T18:35:10.652Z,98384.98
2018-09-02T18:37:43.912Z,98380.70
2018-09-02T18:40:17.539Z,98379.95
2018-09-02T18:42:51.112Z,98371.70
2018-09-02T18:45:24.926Z,98378.16
2018-09-02T18:47:58.159Z,98377.16
2018-09-02T18:50:31.520Z,98377.23
2018-09-02T18:53:04.821Z,98381.91
2018-09-02T18:55:38.371Z,98380.61
2018-09-02T18:58:11.784Z,98380.16
2018-09-02T19:00:45.168Z,98380.16
2018-09-02T19:03:18.475Z,98384.48
2018-09-02T19:05:51.858Z,98387.48
2018-09-02T19:08:25.422Z,98389.98
2018-09-02T19:10:59.008Z,98395.14
2018-09-02T19:13:32.515Z,98391.27
2018-09-02T19:16:06.221Z,98386.61
2018-09-02T19:18:39.610Z,98389.31
2018-09-02T19:21:13.219Z,98397.05
2018-09-02T19:23:46.827Z,98392.36
2018-09-02T19:26:20.312Z,98393.19
2018-09-02T19:28:53.605Z,98385.31
2018-09-02T19:31:27.170Z,98383.95
2018-09-02T19:34:00.638Z,98385.19
2018-09-02T19:36:34.089Z,98381.78
2018-09-02T19:39:09.642Z,98381.86
2018-09-02T19:41:43.031Z,98375.88
2018-09-02T19:44:16.254Z,98376.28
2018-09-02T19:46:49.575Z,98367.72
2018-09-02T19:49:23.041Z,98373.29
2018-09-02T19:51:56.426Z,98374.12
2018-09-02T19:54:29.745Z,98372.00
2018-09-02T19:57:02.992Z,98371.25
2018-09-02T19:59:36.300Z,98373.75
2018-09-02T20:02:09.596Z,98365.13
2018-09-02T20:04:42.826Z,98365.13
2018-09-02T20:07:16.078Z,98360.84
2018-09-02T20:09:49.396Z,98355.97
2018-09-02T20:12:22.652Z,98352.52
2018-09-02T20:14:55.933Z,98346.41
2018-09-02T20:17:29.259Z,98348.44
2018-09-02T20:20:02.724Z,98345.41
2018-09-02T20:22:35.916Z,98349.14
2018-09-02T20:25:09.208Z,98345.73
2018-09-02T20:27:42.430Z,98344.45
2018-09-02T20:30:15.781Z,98345.27
2018-09-02T20:32:49.062Z,98348.31
2018-09-02T20:35:22.400Z,98345.81
2018-09-02T20:37:55.701Z,98343.70
2018-09-02T20:40:29.115Z,98346.69
2018-09-02T20:43:02.361Z,98350.23
2018-09-02T20:45:35.640Z,98344.66
2018-09-02T20:48:08.902Z,98345.53
2018-09-02T20:50:42.092Z,98348.56
2018-09-02T20:53:15.404Z,98347.28
2018-09-02T20:55:48.602Z,98346.94
2018-09-02T20:58:21.943Z,98345.19
2018-09-02T21:00:55.181Z,98342.20
2018-09-02T21:03:28.929Z,98343.48
2018-09-02T21:06:02.216Z,98341.32
2018-09-02T21:08:35.478Z,98343.82
2018-09-02T21:11:08.693Z,98343.78
2018-09-02T21:13:41.917Z,98342.82
2018-09-02T21:16:15.054Z,98339.16
2018-09-02T21:18:48.280Z,98341.20
2018-09-02T21:21:21.507Z,98338.61
2018-09-02T21:23:54.758Z,98338.00
2018-09-02T21:26:27.998Z,98337.73
2018-09-02T21:29:01.216Z,98340.78
2018-09-02T21:31:34.459Z,98337.91
2018-09-02T21:34:07.745Z,98337.03
2018-09-02T21:36:40.955Z,98340.03
2018-09-02T21:39:14.282Z,98333.04
2018-09-02T21:41:47.557Z,98334.74
2018-09-02T21:44:20.757Z,98334.50
2018-09-02T21:46:53.960Z,98337.86
2018-09-02T21:49:27.073Z,98333.16
2018-09-02T21:52:00.385Z,98331.46
2018-09-02T21:54:33.535Z,98325.47
2018-09-02T21:57:06.743Z,98339.20
2018-09-02T21:59:39.923Z,98341.78
2018-09-02T22:02:13.182Z,98339.20
2018-09-02T22:04:46.348Z,98340.95
2018-09-02T22:07:19.549Z,98337.98
2018-09-02T22:09:52.784Z,98329.70
2018-09-02T22:12:25.972Z,98325.01
2018-09-02T22:14:59.110Z,98321.47
2018-09-02T22:17:32.406Z,98323.72
2018-09-02T22:20:05.972Z,98309.06
2018-09-02T22:22:39.163Z,98326.17
2018-09-02T22:25:12.447Z,98324.05
2018-09-02T22:27:45.668Z,98318.09
2018-09-02T22:30:18.882Z,98315.10
2018-09-02T22:32:52.088Z,98310.36
2018-09-02T22:35:25.269Z,98304.20
2018-09-02T22:37:58.437Z,98301.08
2018-09-02T22:40:31.682Z,98292.38
2018-09-02T22:43:04.890Z,98293.55
2018-09-02T22:45:38.084Z,98284.86
2018-09-02T22:48:11.327Z,98281.06
2018-09-02T22:50:44.437Z,98279.90
2018-09-02T22:53:17.638Z,98284.86
2018-09-02T22:55:50.765Z,98276.66
2018-09-02T22:58:24.014Z,98273.20
2018-09-02T23:00:57.150Z,98267.22
2018-09-02T23:03:30.303Z,98259.89
2018-09-02T23:06:03.475Z,98253.02
2018-09-02T23:08:36.653Z,98242.63
2018-09-02T23:11:09.889Z,98239.71
2018-09-02T23:13:43.009Z,98239.30
2018-09-02T23:16:16.199Z,98231.14
2018-09-02T23:18:49.352Z,98230.88
2018-09-02T23:21:22.513Z,98228.76
2018-09-02T23:23:55.760Z,98216.69
2018-09-02T23:26:28.970Z,98210.66
2018-09-02T23:29:02.182Z,98204.59
2018-09-02T23:31:35.374Z,98194.34
2018-09-02T23:34:08.492Z,98191.80
2018-09-02T23:36:41.638Z,98187.36
2018-09-02T23:39:14.777Z,98193.88
2018-09-02T23:41:48.010Z,98181.33
2018-09-02T23:44:21.136Z,98181.44
2018-09-02T23:46:54.373Z,98173.25
2018-09-02T23:49:27.539Z,98175.75
2018-09-02T23:52:00.737Z,98170.02
2018-09-02T23:54:33.888Z,98164.20
2018-09-02T23:57:07.071Z,98167.88
2018-09-02T23:59:40.233Z,98168.29
